Savage, Montana
Current Conditions -  °F | °C
As of 8:15 AM on Wednesday 26 Nov 2014 (Local Time) from KSDY Reporting Station
Overcast Overcast  
Wind Chill:   Ceiling: 5000
Heat Index: 18°   Visibility: 10mi
Dew Point: 12°   Wind: 7mph
Humidity: 79%   Direction: 20°NNE
Pressure: 30.32"   Gusts: NA
Location:  47.46°N, 104.35°W
Report Text: KSDY 261515Z AUTO 02006KT 10SM SCT011 OVC050 M08/M11 A3032 RMK AO1
Loading
Personal Weather Stations






























Interactive Weather Map New forecast layout! Learn more

10-Day Weather Forecast

Advertisements
Track Severe Weather on mobile